Time;durP1;ratioP1;P1;durP2;ratioP2;P2;SDS_P1;SDS_P2;PMS_P1;PMS_P2;Temp;Humidity;BMP_temperature;BMP_pressure;BME280_temperature;BME280_humidity;BME280_pressure;Samples;Min_cycle;Max_cycle;Signal;HPM_P1;HPM_P2
2023/08/02 00:01:52;;;;;;;3.17;2.00;;;18.50;98.00;;;;;;5020012;28;20474;-68
2023/08/02 00:04:19;;;;;;;3.97;2.00;;;18.50;98.00;;;;;;5054086;28;20450;-69
2023/08/02 00:06:46;;;;;;;1.90;1.70;;;18.50;98.00;;;;;;5053991;28;20453;-68
2023/08/02 00:09:13;;;;;;;2.50;2.07;;;18.60;98.00;;;;;;5054011;28;20460;-69
2023/08/02 00:11:42;;;;;;;4.37;2.07;;;18.60;98.00;;;;;;5053919;28;20563;-68
2023/08/02 00:14:09;;;;;;;3.20;2.20;;;18.30;98.00;;;;;;5053800;28;20458;-68
2023/08/02 00:16:36;;;;;;;3.17;2.20;;;18.20;98.00;;;;;;5053777;28;20881;-69
2023/08/02 00:19:03;;;;;;;2.70;1.83;;;18.20;98.00;;;;;;5054459;28;20885;-69
2023/08/02 00:21:30;;;;;;;2.20;1.83;;;18.10;98.00;;;;;;5054303;28;20459;-69
2023/08/02 00:23:59;;;;;;;2.60;2.00;;;18.10;98.00;;;;;;5053700;28;20990;-69
2023/08/02 00:26:26;;;;;;;3.50;2.03;;;17.90;98.00;;;;;;5053765;28;20457;-69
2023/08/02 00:28:54;;;;;;;2.80;2.00;;;17.80;98.00;;;;;;5035868;28;20472;-69
2023/08/02 00:31:21;;;;;;;2.23;1.83;;;17.70;98.00;;;;;;5035881;28;20508;-69
2023/08/02 00:33:49;;;;;;;2.17;1.80;;;17.70;98.00;;;;;;5052515;28;20442;-68
2023/08/02 00:36:16;;;;;;;5.23;2.00;;;17.70;98.00;;;;;;5035863;28;20457;-69
2023/08/02 00:38:43;;;;;;;5.83;2.20;;;17.50;98.00;;;;;;5035917;28;21179;-69
2023/08/02 00:41:11;;;;;;;2.43;1.87;;;17.50;98.00;;;;;;5053318;28;20453;-69
2023/08/02 00:43:41;;;;;;;5.17;2.30;;;17.60;98.00;;;;;;5053213;28;20967;-68
2023/08/02 00:46:10;;;;;;;2.23;1.90;;;17.70;98.00;;;;;;5035354;28;20453;-68
2023/08/02 00:48:38;;;;;;;8.90;2.20;;;17.60;98.00;;;;;;5053247;28;20446;-69
2023/08/02 00:51:08;;;;;;;3.47;1.80;;;17.60;98.00;;;;;;5053076;28;20875;-68
2023/08/02 00:53:35;;;;;;;2.60;1.87;;;17.80;98.00;;;;;;5035485;28;20505;-69
2023/08/02 00:56:04;;;;;;;9.30;2.13;;;17.80;98.00;;;;;;5053005;28;20442;-68
2023/08/02 00:58:31;;;;;;;3.40;1.83;;;17.80;98.00;;;;;;5053022;28;20462;-69
2023/08/02 01:01:06;;;;;;;2.60;1.73;;;17.80;98.00;;;;;;5035252;28;20936;-69
2023/08/02 01:03:36;;;;;;;2.53;1.90;;;17.90;98.00;;;;;;5052938;28;20453;-69
2023/08/02 01:06:16;;;;;;;2.70;1.80;;;17.90;98.00;;;;;;5053197;28;20469;-69
2023/08/02 01:08:47;;;;;;;3.00;2.10;;;17.90;98.00;;;;;;5052972;28;20450;-69
2023/08/02 01:11:21;;;;;;;3.10;1.90;;;17.90;98.00;;;;;;5035548;28;20481;-69
2023/08/02 01:13:51;;;;;;;3.10;2.00;;;17.90;98.00;;;;;;5053008;28;20832;-69
2023/08/02 01:16:20;;;;;;;3.20;2.10;;;17.90;98.00;;;;;;5053101;28;20497;-70
2023/08/02 01:18:48;;;;;;;2.50;2.10;;;17.80;98.00;;;;;;5052608;28;20457;-69
2023/08/02 01:21:17;;;;;;;4.10;2.10;;;17.70;98.00;;;;;;5052977;28;20458;-69
2023/08/02 01:23:44;;;;;;;3.47;2.10;;;17.70;98.00;;;;;;5052562;28;20458;-69
2023/08/02 01:26:13;;;;;;;2.63;1.97;;;17.70;98.00;;;;;;5052549;28;20445;-69
2023/08/02 01:28:45;;;;;;;4.20;2.10;;;17.60;98.00;;;;;;5052471;28;20458;-68
2023/08/02 01:31:13;;;;;;;3.60;1.90;;;17.50;98.00;;;;;;5052373;28;20489;-69
2023/08/02 01:33:47;;;;;;;3.73;2.00;;;17.30;98.00;;;;;;5052363;28;20457;-68
2023/08/02 01:36:14;;;;;;;2.67;1.90;;;17.30;98.00;;;;;;5052097;28;20458;-68
2023/08/02 01:38:42;;;;;;;2.57;2.10;;;17.30;98.00;;;;;;5052318;28;20464;-68
2023/08/02 01:41:09;;;;;;;2.37;1.80;;;17.10;98.00;;;;;;5052281;28;20450;-69
2023/08/02 01:43:38;;;;;;;5.83;2.00;;;17.00;98.00;;;;;;5052068;28;20458;-69
2023/08/02 01:46:05;;;;;;;2.30;1.90;;;16.90;98.00;;;;;;5051802;28;20465;-70
2023/08/02 01:48:32;;;;;;;11.83;2.10;;;16.80;98.00;;;;;;5052067;28;20457;-69
2023/08/02 01:50:59;;;;;;;3.37;1.87;;;16.80;98.00;;;;;;5052156;28;20492;-69
2023/08/02 01:53:26;;;;;;;2.50;1.90;;;16.80;98.00;;;;;;5052117;28;20461;-69
2023/08/02 01:55:55;;;;;;;3.87;2.20;;;16.80;98.00;;;;;;5051731;28;20454;-69
2023/08/02 01:58:22;;;;;;;3.20;1.80;;;16.90;98.00;;;;;;5051944;28;20458;-69
2023/08/02 02:00:49;;;;;;;6.90;1.97;;;16.70;98.00;;;;;;5052066;28;20457;-69
2023/08/02 02:03:16;;;;;;;3.07;1.87;;;16.70;98.00;;;;;;5051926;28;20461;-69
2023/08/02 02:05:52;;;;;;;4.30;2.00;;;16.80;98.00;;;;;;5034248;28;20457;-69
2023/08/02 02:08:19;;;;;;;4.03;1.70;;;16.50;98.00;;;;;;5052146;28;20817;-69
2023/08/02 02:10:50;;;;;;;2.53;1.87;;;16.50;98.00;;;;;;5017655;28;21056;-68
2023/08/02 02:13:26;;;;;;;4.50;2.20;;;16.30;98.00;;;;;;5051876;28;20481;-69
2023/08/02 02:15:53;;;;;;;3.50;1.90;;;16.20;98.00;;;;;;5051674;28;20454;-68
2023/08/02 02:18:20;;;;;;;3.13;1.90;;;16.20;98.00;;;;;;5051694;28;20461;-68
2023/08/02 02:20:47;;;;;;;2.53;2.10;;;16.20;98.00;;;;;;5051578;28;20450;-69
2023/08/02 02:23:14;;;;;;;4.27;2.17;;;16.20;98.00;;;;;;5051445;28;20869;-69
2023/08/02 02:25:41;;;;;;;2.00;1.83;;;16.10;98.00;;;;;;5051416;28;20944;-69
2023/08/02 02:28:10;;;;;;;2.90;2.00;;;16.00;98.00;;;;;;5017370;28;20789;-69
2023/08/02 02:30:44;;;;;;;1.77;1.70;;;16.00;98.00;;;;;;5051236;28;20489;-69
2023/08/02 02:33:11;;;;;;;2.53;1.80;;;15.80;98.00;;;;;;5017762;28;20454;-68
2023/08/02 02:35:38;;;;;;;2.97;1.87;;;15.90;98.00;;;;;;5051363;28;20464;-69
2023/08/02 02:38:05;;;;;;;3.30;1.83;;;15.90;98.00;;;;;;5050874;28;20457;-69
2023/08/02 02:40:32;;;;;;;2.80;1.93;;;16.00;98.00;;;;;;5050681;28;20454;-69
2023/08/02 02:42:59;;;;;;;4.57;1.90;;;16.10;98.00;;;;;;5051295;28;20862;-69
2023/08/02 02:45:26;;;;;;;2.70;1.90;;;16.00;98.00;;;;;;5051126;28;21039;-69
2023/08/02 02:47:55;;;;;;;2.53;2.13;;;16.00;98.00;;;;;;5051174;28;20462;-69
2023/08/02 02:50:22;;;;;;;2.13;1.67;;;16.20;98.00;;;;;;5051178;28;20446;-68
2023/08/02 02:52:49;;;;;;;3.83;2.20;;;16.30;98.00;;;;;;5051063;28;20464;-69
2023/08/02 02:55:16;;;;;;;4.53;2.07;;;16.30;98.00;;;;;;5033525;28;20450;-69
2023/08/02 02:57:44;;;;;;;4.80;2.10;;;16.20;98.00;;;;;;5050403;28;21030;-68
2023/08/02 03:00:12;;;;;;;3.50;2.30;;;16.30;98.00;;;;;;5051242;28;20450;-69
2023/08/02 03:02:39;;;;;;;4.00;1.97;;;16.20;98.00;;;;;;5051200;28;20832;-69
2023/08/02 03:05:08;;;;;;;2.83;1.97;;;16.10;98.00;;;;;;5033469;28;20446;-68
2023/08/02 03:07:35;;;;;;;7.40;2.60;;;16.00;98.00;;;;;;5050893;28;20453;-68
2023/08/02 03:10:05;;;;;;;2.50;1.77;;;15.90;98.00;;;;;;5033910;28;20449;-68
2023/08/02 03:12:32;;;;;;;3.87;2.10;;;16.10;98.00;;;;;;5051787;28;21015;-68
2023/08/02 03:15:00;;;;;;;3.70;2.10;;;16.00;98.00;;;;;;5052139;28;20454;-69
2023/08/02 03:17:27;;;;;;;4.67;2.33;;;16.00;98.00;;;;;;5033213;28;20449;-69
2023/08/02 03:19:54;;;;;;;3.43;2.03;;;15.90;98.00;;;;;;5051219;28;20458;-69
2023/08/02 03:22:23;;;;;;;2.43;1.90;;;16.00;98.00;;;;;;5052000;28;20952;-69
2023/08/02 03:24:50;;;;;;;2.90;2.03;;;16.10;98.00;;;;;;5051969;28;20764;-69
2023/08/02 03:27:17;;;;;;;4.37;2.10;;;16.00;98.00;;;;;;5051075;28;20450;-69
2023/08/02 03:29:44;;;;;;;3.53;2.30;;;16.00;98.00;;;;;;5050815;28;20461;-68
2023/08/02 03:32:11;;;;;;;4.80;2.10;;;16.10;98.00;;;;;;5050859;28;20489;-68
2023/08/02 03:34:39;;;;;;;3.90;2.30;;;16.20;98.00;;;;;;5050774;28;20879;-68
2023/08/02 03:37:06;;;;;;;4.93;2.57;;;16.40;98.00;;;;;;5050699;28;20524;-68
2023/08/02 03:39:35;;;;;;;2.93;1.93;;;16.30;98.00;;;;;;5050701;28;20450;-69
2023/08/02 03:42:02;;;;;;;3.43;2.20;;;16.20;98.00;;;;;;5050732;28;20455;-68
2023/08/02 03:44:31;;;;;;;2.90;2.20;;;16.20;98.00;;;;;;5050707;28;20457;-69
2023/08/02 03:46:58;;;;;;;13.47;2.07;;;16.20;98.00;;;;;;5050635;28;20966;-69
2023/08/02 03:49:25;;;;;;;2.80;2.17;;;16.20;98.00;;;;;;5050937;28;20480;-69
2023/08/02 03:51:52;;;;;;;2.67;1.80;;;16.20;98.00;;;;;;5050731;28;20851;-68
2023/08/02 03:54:19;;;;;;;4.53;2.27;;;16.40;98.00;;;;;;5033043;28;21074;-69
2023/08/02 03:56:48;;;;;;;4.27;2.40;;;16.40;98.00;;;;;;5050817;28;20450;-68
2023/08/02 03:59:15;;;;;;;8.00;2.70;;;16.40;98.00;;;;;;5050723;28;20442;-69
2023/08/02 04:01:42;;;;;;;3.10;2.03;;;16.20;98.00;;;;;;5032774;28;20461;-68
2023/08/02 04:04:09;;;;;;;4.97;2.50;;;16.10;98.00;;;;;;5050635;28;20859;-68
2023/08/02 04:06:37;;;;;;;2.47;1.97;;;16.10;98.00;;;;;;5050371;28;20468;-69
2023/08/02 04:09:04;;;;;;;4.00;2.20;;;16.00;98.00;;;;;;5052039;28;20453;-68
2023/08/02 04:11:31;;;;;;;4.90;2.20;;;15.90;98.00;;;;;;5036379;28;20481;-69
2023/08/02 04:14:00;;;;;;;3.60;2.10;;;16.00;98.00;;;;;;5020071;28;20541;-69
2023/08/02 04:16:27;;;;;;;3.33;2.27;;;16.00;98.00;;;;;;5035915;28;20508;-69
2023/08/02 04:18:54;;;;;;;3.00;2.10;;;16.20;98.00;;;;;;5053947;28;20458;-69
2023/08/02 04:21:21;;;;;;;2.80;2.10;;;16.20;98.00;;;;;;5019410;28;20952;-68
2023/08/02 04:23:51;;;;;;;4.10;2.13;;;16.30;98.00;;;;;;5053724;28;20452;-69
2023/08/02 04:26:18;;;;;;;2.67;1.90;;;16.40;98.00;;;;;;5035923;28;20453;-69
2023/08/02 04:28:46;;;;;;;3.20;2.17;;;16.40;98.00;;;;;;5053762;28;20458;-69
2023/08/02 04:31:14;;;;;;;4.77;2.20;;;16.50;98.00;;;;;;5035517;28;20457;-69
2023/08/02 04:33:41;;;;;;;3.30;2.30;;;16.50;98.00;;;;;;5053634;28;20739;-68
2023/08/02 04:36:08;;;;;;;3.33;2.03;;;16.40;98.00;;;;;;5053641;28;20817;-69
2023/08/02 04:38:35;;;;;;;4.63;2.17;;;16.40;98.00;;;;;;5053439;28;20441;-69
2023/08/02 04:41:04;;;;;;;4.97;2.30;;;16.50;98.00;;;;;;5053312;28;20480;-69
2023/08/02 04:43:31;;;;;;;7.07;2.07;;;16.40;98.00;;;;;;5035901;28;20449;-68
2023/08/02 04:45:58;;;;;;;3.10;2.10;;;16.40;98.00;;;;;;5053256;28;20454;-69
2023/08/02 04:48:26;;;;;;;2.97;1.97;;;16.40;98.00;;;;;;5053370;28;20960;-69
2023/08/02 04:50:53;;;;;;;3.20;2.10;;;16.50;98.00;;;;;;5053410;28;20936;-69
2023/08/02 04:53:20;;;;;;;4.43;2.40;;;16.60;98.00;;;;;;5035311;28;20481;-68
2023/08/02 04:55:47;;;;;;;2.13;1.70;;;16.60;98.00;;;;;;5053392;28;20500;-68
2023/08/02 04:58:14;;;;;;;2.30;1.83;;;16.80;98.00;;;;;;5053144;28;20450;-68
2023/08/02 05:00:42;;;;;;;3.17;2.17;;;16.90;98.00;;;;;;5035150;28;20568;-69
2023/08/02 05:03:09;;;;;;;2.97;2.00;;;17.00;98.00;;;;;;5053158;28;20563;-69
2023/08/02 05:05:37;;;;;;;3.73;2.20;;;17.00;98.00;;;;;;5053003;28;20525;-69
2023/08/02 05:08:04;;;;;;;3.30;1.93;;;17.20;98.00;;;;;;5052796;28;20453;-69
2023/08/02 05:10:31;;;;;;;3.00;1.90;;;17.20;98.00;;;;;;5035174;28;20825;-69
2023/08/02 05:12:58;;;;;;;3.10;2.07;;;17.20;98.00;;;;;;5052848;28;20485;-69
2023/08/02 05:15:25;;;;;;;4.93;2.30;;;17.20;98.00;;;;;;5052811;28;20832;-69
2023/08/02 05:17:53;;;;;;;4.60;2.30;;;17.20;98.00;;;;;;5018398;28;20972;-69
2023/08/02 05:20:20;;;;;;;2.27;1.93;;;17.30;98.00;;;;;;5052139;28;21052;-69
2023/08/02 05:22:50;;;;;;;4.40;2.13;;;17.30;98.00;;;;;;5052744;28;20461;-69
2023/08/02 05:25:17;;;;;;;3.10;2.10;;;17.20;98.00;;;;;;5052700;28;20853;-69
2023/08/02 05:27:45;;;;;;;6.63;2.27;;;17.20;98.00;;;;;;5052397;28;20458;-68
2023/08/02 05:30:13;;;;;;;3.70;2.30;;;17.30;98.00;;;;;;5052579;28;20465;-68
2023/08/02 05:32:40;;;;;;;5.97;2.87;;;17.30;98.00;;;;;;5034405;28;20562;-68
2023/08/02 05:35:08;;;;;;;4.33;2.13;;;17.30;98.00;;;;;;5052286;28;20939;-68
2023/08/02 05:37:35;;;;;;;3.10;2.30;;;17.30;98.00;;;;;;5034795;28;20812;-68
2023/08/02 05:40:04;;;;;;;3.97;2.10;;;17.30;98.00;;;;;;5034832;28;20458;-69
2023/08/02 05:42:31;;;;;;;3.80;2.10;;;17.20;98.00;;;;;;5052290;28;20458;-69
2023/08/02 05:44:58;;;;;;;2.43;2.23;;;17.20;98.00;;;;;;5052326;28;20511;-69
2023/08/02 05:47:25;;;;;;;3.10;1.70;;;17.20;98.00;;;;;;5052240;28;20480;-69
2023/08/02 05:49:52;;;;;;;2.83;2.00;;;17.20;98.00;;;;;;5052406;28;21071;-69
2023/08/02 05:52:19;;;;;;;3.50;2.40;;;17.30;98.00;;;;;;5052186;28;20486;-69
2023/08/02 05:54:46;;;;;;;6.80;3.17;;;17.30;98.00;;;;;;5052162;28;20843;-69
2023/08/02 05:57:14;;;;;;;4.03;2.80;;;17.20;98.00;;;;;;5051898;28;20449;-69
2023/08/02 05:59:42;;;;;;;5.10;2.50;;;17.30;98.00;;;;;;5052284;28;20480;-68
2023/08/02 06:02:09;;;;;;;3.23;2.30;;;17.20;98.00;;;;;;5034006;28;20963;-69
2023/08/02 06:04:39;;;;;;;2.97;2.10;;;17.20;98.00;;;;;;5051908;28;20519;-68
2023/08/02 06:07:06;;;;;;;4.07;2.30;;;17.20;98.00;;;;;;5051542;28;20460;-69
2023/08/02 06:09:42;;;;;;;5.50;2.20;;;17.20;98.00;;;;;;5051879;28;20836;-69
2023/08/02 06:12:09;;;;;;;5.10;2.53;;;17.20;98.00;;;;;;5051718;28;20489;-68
2023/08/02 06:14:38;;;;;;;4.60;2.20;;;17.10;98.00;;;;;;5051701;28;20505;-69
2023/08/02 06:17:05;;;;;;;3.30;2.30;;;17.20;98.00;;;;;;5051649;28;21029;-68
2023/08/02 06:19:32;;;;;;;4.97;2.90;;;17.10;98.00;;;;;;5051416;28;20947;-70
2023/08/02 06:22:00;;;;;;;3.33;2.00;;;17.10;98.00;;;;;;5034153;28;20449;-68
2023/08/02 06:24:27;;;;;;;3.53;2.60;;;17.10;98.00;;;;;;5033877;28;20673;-69
2023/08/02 06:26:54;;;;;;;4.43;2.60;;;17.20;98.00;;;;;;5034076;28;20462;-68
2023/08/02 06:29:21;;;;;;;5.70;2.90;;;17.20;98.00;;;;;;5051361;28;20480;-68
2023/08/02 06:31:49;;;;;;;4.17;2.60;;;17.10;98.00;;;;;;5050475;28;20457;-70
2023/08/02 06:34:16;;;;;;;5.90;3.40;;;17.10;98.00;;;;;;5051604;28;20446;-69
2023/08/02 06:36:43;;;;;;;5.10;3.10;;;17.20;98.00;;;;;;5033791;28;20463;-69
2023/08/02 06:39:10;;;;;;;6.63;2.50;;;17.20;98.00;;;;;;5051942;28;20461;-65
2023/08/02 06:41:37;;;;;;;4.90;2.90;;;17.20;98.00;;;;;;5051364;28;20458;-64
2023/08/02 06:44:05;;;;;;;5.93;2.93;;;17.20;98.00;;;;;;5051261;28;20945;-64
2023/08/02 06:46:33;;;;;;;7.37;3.27;;;17.30;98.00;;;;;;5051137;28;21021;-66
2023/08/02 06:49:02;;;;;;;5.53;2.93;;;17.30;98.00;;;;;;5051208;28;20446;-64
2023/08/02 06:51:29;;;;;;;6.23;3.03;;;17.30;98.00;;;;;;5050799;28;20446;-65
2023/08/02 06:53:57;;;;;;;6.97;3.20;;;17.30;98.00;;;;;;5051010;28;20482;-65
2023/08/02 06:56:25;;;;;;;6.07;3.13;;;17.30;98.00;;;;;;5051040;28;20474;-65
2023/08/02 06:58:53;;;;;;;4.70;2.90;;;17.30;98.00;;;;;;5033502;28;20460;-65
2023/08/02 07:01:22;;;;;;;9.57;3.37;;;17.30;98.00;;;;;;5050855;28;20445;-65
2023/08/02 07:03:50;;;;;;;7.23;3.93;;;17.30;98.00;;;;;;5050976;28;20457;-64
2023/08/02 07:06:19;;;;;;;5.70;3.13;;;17.50;98.00;;;;;;5051243;28;20450;-65
2023/08/02 07:08:47;;;;;;;6.53;3.20;;;17.60;98.00;;;;;;5050186;28;20523;-65
2023/08/02 07:11:14;;;;;;;10.50;4.20;;;17.70;98.00;;;;;;5033388;28;20461;-65
2023/08/02 07:13:44;;;;;;;4.30;3.27;;;17.80;98.00;;;;;;5050795;28;20509;-65
2023/08/02 07:16:11;;;;;;;6.60;3.77;;;17.80;98.00;;;;;;5051225;28;20971;-65
2023/08/02 07:18:38;;;;;;;5.23;3.40;;;17.90;98.00;;;;;;5050760;28;20848;-65
2023/08/02 07:21:06;;;;;;;5.67;3.23;;;17.90;98.00;;;;;;5050777;28;21024;-65
2023/08/02 07:23:36;;;;;;;6.50;3.93;;;18.00;98.00;;;;;;5050674;28;20480;-65
2023/08/02 07:26:04;;;;;;;5.93;3.30;;;17.90;98.00;;;;;;5051301;28;20458;-65
2023/08/02 07:28:32;;;;;;;6.50;3.80;;;17.90;98.00;;;;;;5033204;28;20458;-65
2023/08/02 07:31:06;;;;;;;5.40;3.33;;;18.00;98.00;;;;;;5033062;28;20494;-65
2023/08/02 07:33:34;;;;;;;8.30;3.40;;;18.10;98.00;;;;;;5050923;28;21168;-65
2023/08/02 07:36:01;;;;;;;5.43;3.13;;;18.20;98.00;;;;;;5049590;28;20453;-65
2023/08/02 07:38:28;;;;;;;4.53;3.10;;;18.20;98.00;;;;;;5033081;28;20449;-65
2023/08/02 07:41:03;;;;;;;5.20;3.30;;;18.30;98.00;;;;;;5062933;28;20457;-65
2023/08/02 07:43:30;;;;;;;5.13;3.10;;;18.40;98.00;;;;;;5053232;28;20454;-65
2023/08/02 07:45:58;;;;;;;4.80;2.83;;;18.50;98.00;;;;;;5054436;28;20446;-65
2023/08/02 07:48:25;;;;;;;4.73;3.33;;;18.60;98.00;;;;;;5054214;28;20454;-65
2023/08/02 07:50:53;;;;;;;6.40;3.23;;;18.60;98.00;;;;;;5054228;28;20449;-64
2023/08/02 07:53:20;;;;;;;9.70;4.23;;;18.70;98.00;;;;;;5036531;28;20489;-65
2023/08/02 07:55:48;;;;;;;5.67;2.77;;;18.70;98.00;;;;;;5054388;28;20453;-65
2023/08/02 07:58:17;;;;;;;6.17;3.43;;;18.60;98.00;;;;;;5054345;28;20514;-65
2023/08/02 08:00:47;;;;;;;5.67;3.03;;;18.70;98.00;;;;;;5054044;28;20446;-66
2023/08/02 08:03:15;;;;;;;5.53;2.77;;;18.90;98.00;;;;;;5051761;28;20465;-66
2023/08/02 08:05:47;;;;;;;6.40;3.40;;;19.20;98.00;;;;;;5054180;28;20848;-66
2023/08/02 08:08:15;;;;;;;4.30;2.93;;;19.40;98.00;;;;;;5037471;28;20456;-67
2023/08/02 08:10:52;;;;;;;4.70;3.20;;;19.60;98.00;;;;;;5037052;28;20445;-67
2023/08/02 08:13:21;;;;;;;6.17;3.33;;;19.80;98.00;;;;;;5054345;28;20520;-66
2023/08/02 08:15:48;;;;;;;6.70;2.83;;;19.90;98.00;;;;;;5054757;28;20442;-67
2023/08/02 08:18:15;;;;;;;5.97;2.73;;;20.00;98.00;;;;;;5054493;28;20997;-66
2023/08/02 08:20:42;;;;;;;4.30;2.90;;;20.00;98.00;;;;;;5069777;28;20456;-66
2023/08/02 08:23:09;;;;;;;6.57;3.60;;;20.10;98.00;;;;;;5074650;28;20954;-67
2023/08/02 08:25:37;;;;;;;6.07;3.30;;;20.20;98.00;;;;;;5074185;28;20459;-67
2023/08/02 08:28:06;;;;;;;4.87;2.90;;;20.20;98.00;;;;;;5074283;28;20447;-66
2023/08/02 08:30:34;;;;;;;6.73;3.50;;;20.10;98.00;;;;;;5074018;28;20456;-65
2023/08/02 08:33:01;;;;;;;4.77;2.83;;;19.90;98.00;;;;;;5074260;28;20503;-66
2023/08/02 08:35:28;;;;;;;6.80;3.40;;;19.80;98.00;;;;;;5073897;28;20453;-66
2023/08/02 08:37:55;;;;;;;5.20;3.20;;;19.70;98.00;;;;;;5074158;28;20461;-65
2023/08/02 08:40:22;;;;;;;5.10;3.27;;;19.50;98.00;;;;;;5073889;28;20940;-66
2023/08/02 08:42:51;;;;;;;7.40;3.77;;;19.40;98.00;;;;;;5073971;28;20445;-66
2023/08/02 08:45:24;;;;;;;6.70;3.50;;;19.40;98.00;;;;;;5073864;28;20460;-65
2023/08/02 08:47:53;;;;;;;6.93;4.07;;;19.30;98.00;;;;;;5073568;28;20449;-65
2023/08/02 08:50:22;;;;;;;6.07;3.60;;;19.20;98.00;;;;;;5073893;28;20460;-66
2023/08/02 08:52:51;;;;;;;4.93;3.03;;;19.10;98.00;;;;;;5073250;28;20595;-65
2023/08/02 08:55:19;;;;;;;7.93;3.53;;;19.00;98.00;;;;;;5072824;28;20969;-65
2023/08/02 08:57:49;;;;;;;7.40;3.20;;;19.00;98.00;;;;;;5073386;28;20889;-65
2023/08/02 09:00:18;;;;;;;4.57;2.83;;;19.10;98.00;;;;;;5058292;28;20463;-65
2023/08/02 09:02:46;;;;;;;6.83;3.37;;;19.20;98.00;;;;;;5053123;28;20466;-65
2023/08/02 09:05:15;;;;;;;3.63;2.50;;;19.30;98.00;;;;;;5053401;28;20453;-65
2023/08/02 09:07:42;;;;;;;4.40;2.93;;;19.30;98.00;;;;;;5053579;28;20473;-65
2023/08/02 09:10:10;;;;;;;5.47;3.10;;;19.30;98.00;;;;;;5035658;28;20473;-65
2023/08/02 09:12:45;;;;;;;5.90;3.20;;;19.20;98.00;;;;;;5053386;28;20464;-65
2023/08/02 09:15:14;;;;;;;6.60;2.80;;;19.10;98.00;;;;;;5053508;28;20484;-66
2023/08/02 09:17:49;;;;;;;5.00;2.50;;;19.00;98.00;;;;;;5053318;28;20453;-65
2023/08/02 09:20:19;;;;;;;3.90;2.30;;;19.00;98.00;;;;;;5035631;28;20503;-65
2023/08/02 09:22:47;;;;;;;4.57;2.20;;;18.90;98.00;;;;;;5053343;28;20454;-66
2023/08/02 09:25:22;;;;;;;3.97;2.60;;;18.90;98.00;;;;;;5052917;28;20492;-66
2023/08/02 09:27:50;;;;;;;3.77;2.30;;;18.80;98.00;;;;;;5062618;28;20449;-66
2023/08/02 09:30:27;;;;;;;4.23;2.50;;;18.80;98.00;;;;;;5052758;28;20454;-65
2023/08/02 09:33:02;;;;;;;4.13;2.57;;;18.80;98.00;;;;;;5052634;28;20569;-65
2023/08/02 09:35:35;;;;;;;5.10;2.90;;;18.80;98.00;;;;;;5051152;28;20460;-65
2023/08/02 09:38:13;;;;;;;4.73;2.57;;;18.90;98.00;;;;;;5071490;28;20452;-65
2023/08/02 09:40:42;;;;;;;3.00;2.53;;;19.00;98.00;;;;;;5072727;28;20506;-66
2023/08/02 09:43:10;;;;;;;5.63;3.03;;;19.00;98.00;;;;;;5072554;28;20536;-66
2023/08/02 09:45:38;;;;;;;5.03;2.90;;;19.00;98.00;;;;;;5072556;28;20975;-65
2023/08/02 09:48:05;;;;;;;3.77;2.40;;;19.10;98.00;;;;;;5071827;28;20464;-66
2023/08/02 09:50:35;;;;;;;16.10;3.07;;;19.10;98.00;;;;;;5051465;28;20470;-66
2023/08/02 09:53:15;;;;;;;3.53;2.40;;;19.10;98.00;;;;;;5051873;28;20564;-66
2023/08/02 09:55:44;;;;;;;3.40;2.30;;;19.10;98.00;;;;;;5051772;28;20948;-65
2023/08/02 09:58:14;;;;;;;3.97;2.43;;;19.20;98.00;;;;;;5059402;28;20449;-66
2023/08/02 10:00:42;;;;;;;2.90;2.20;;;19.30;98.00;;;;;;5055802;28;20490;-66
2023/08/02 10:03:11;;;;;;;2.87;2.27;;;19.40;98.00;;;;;;5051163;28;20959;-66
2023/08/02 10:05:46;;;;;;;3.87;2.50;;;19.60;98.00;;;;;;5051745;28;20462;-66
2023/08/02 10:08:15;;;;;;;4.30;2.67;;;19.70;98.00;;;;;;5051261;28;20449;-66
2023/08/02 10:10:46;;;;;;;3.30;2.30;;;19.80;98.00;;;;;;5051634;28;20481;-66
2023/08/02 10:13:18;;;;;;;4.83;2.70;;;19.90;98.00;;;;;;5051697;28;20515;-66
2023/08/02 10:15:48;;;;;;;3.70;2.60;;;20.00;98.00;;;;;;5034778;28;20458;-66
2023/08/02 10:18:17;;;;;;;5.07;2.40;;;20.10;98.00;;;;;;5051848;28;20450;-66
2023/08/02 10:20:46;;;;;;;4.00;2.40;;;20.20;98.00;;;;;;5051903;28;20473;-66
2023/08/02 10:23:13;;;;;;;3.97;2.33;;;20.40;98.00;;;;;;5051802;28;20492;-66
2023/08/02 10:25:42;;;;;;;4.40;2.60;;;20.50;98.00;;;;;;5051570;28;20458;-66
2023/08/02 10:28:11;;;;;;;5.10;3.13;;;20.60;98.00;;;;;;5051508;28;20446;-66
2023/08/02 10:30:39;;;;;;;5.73;3.40;;;20.60;98.00;;;;;;5051408;28;20462;-65
2023/08/02 10:33:14;;;;;;;3.30;2.70;;;20.60;98.00;;;;;;5051238;28;20465;-66
2023/08/02 10:35:58;;;;;;;3.50;2.30;;;20.70;98.00;;;;;;5051492;28;20932;-66
2023/08/02 10:38:46;;;;;;;4.73;2.90;;;20.80;98.00;;;;;;5051626;28;20485;-66
2023/08/02 10:41:16;;;;;;;4.50;3.00;;;20.70;98.00;;;;;;5051554;28;20454;-66
2023/08/02 10:44:11;;;;;;;4.60;2.70;;;20.70;98.00;;;;;;5033767;28;20449;-66
2023/08/02 10:46:38;;;;;;;4.53;3.10;;;20.70;98.00;;;;;;5051132;28;20449;-66
2023/08/02 10:49:38;;;;;;;5.50;3.17;;;20.60;98.00;;;;;;5051496;28;20462;-66
2023/08/02 10:52:26;;;;;;;4.00;3.00;;;20.60;98.00;;;;;;5051334;28;20940;-66
2023/08/02 10:55:08;;;;;;;4.67;2.90;;;20.60;98.00;;;;;;5051041;28;20493;-66
2023/08/02 10:57:36;;;;;;;6.77;3.20;;;20.70;98.00;;;;;;5051051;28;20948;-65
2023/08/02 11:00:19;;;;;;;4.73;2.83;;;20.70;98.00;;;;;;5051174;28;20446;-66
2023/08/02 11:02:48;;;;;;;5.20;3.07;;;20.70;98.00;;;;;;5050863;28;20461;-65
2023/08/02 11:05:18;;;;;;;4.50;2.90;;;20.70;98.00;;;;;;5051307;28;20454;-66
2023/08/02 11:08:00;;;;;;;7.10;2.97;;;20.60;98.00;;;;;;5051049;28;20461;-66
2023/08/02 11:10:28;;;;;;;5.57;3.20;;;20.50;98.00;;;;;;5051036;28;20556;-65
2023/08/02 11:12:56;;;;;;;5.53;3.10;;;20.50;98.00;;;;;;5051088;28;20456;-66
2023/08/02 11:15:24;;;;;;;4.50;2.90;;;20.50;98.00;;;;;;5033303;28;20488;-66
2023/08/02 11:17:56;;;;;;;4.90;3.00;;;20.40;98.00;;;;;;5052482;28;20458;-66
2023/08/02 11:20:28;;;;;;;6.10;3.20;;;20.40;98.00;;;;;;5037692;28;20464;-68
2023/08/02 11:22:55;;;;;;;4.93;3.10;;;20.40;98.00;;;;;;5054904;28;20511;-68
2023/08/02 11:25:24;;;;;;;5.30;3.43;;;20.40;98.00;;;;;;5055122;28;20553;-65
2023/08/02 11:28:02;;;;;;;7.13;3.67;;;20.30;98.00;;;;;;5054932;28;20457;-66
2023/08/02 11:30:29;;;;;;;5.60;3.50;;;20.20;98.00;;;;;;5054951;28;20453;-66
2023/08/02 11:32:56;;;;;;;4.90;3.50;;;20.20;98.00;;;;;;5036319;28;20449;-66
2023/08/02 11:35:24;;;;;;;5.50;3.47;;;20.20;98.00;;;;;;5054545;28;20492;-66
2023/08/02 11:37:52;;;;;;;6.23;3.80;;;20.20;98.00;;;;;;5054513;28;20460;-66
2023/08/02 11:40:19;;;;;;;11.03;3.57;;;20.20;98.00;;;;;;5054689;28;20887;-66
2023/08/02 11:42:50;;;;;;;6.83;3.67;;;20.30;98.00;;;;;;5054752;28;20458;-66
2023/08/02 11:45:28;;;;;;;5.00;3.33;;;20.40;98.00;;;;;;5054705;28;20537;-66
2023/08/02 11:47:55;;;;;;;5.70;3.60;;;20.40;98.00;;;;;;5054712;28;20493;-65
2023/08/02 11:50:24;;;;;;;4.63;3.30;;;20.60;98.00;;;;;;5054530;28;20492;-66
2023/08/02 11:52:51;;;;;;;5.63;3.60;;;20.70;98.00;;;;;;5054560;28;20485;-66
2023/08/02 11:55:20;;;;;;;6.30;3.60;;;20.70;98.00;;;;;;5036629;28;20497;-66
2023/08/02 11:57:49;;;;;;;4.87;3.10;;;20.90;98.00;;;;;;5054221;28;20485;-65
2023/08/02 12:00:17;;;;;;;6.10;3.73;;;21.20;98.00;;;;;;5054417;28;20507;-66
2023/08/02 12:02:46;;;;;;;5.40;3.40;;;21.50;98.00;;;;;;5054110;28;20631;-66
2023/08/02 12:05:23;;;;;;;7.93;3.33;;;21.80;98.00;;;;;;5054223;28;20503;-66
2023/08/02 12:07:50;;;;;;;6.13;3.63;;;22.20;98.00;;;;;;5054446;28;20456;-66
2023/08/02 12:10:29;;;;;;;7.43;3.93;;;22.80;98.00;;;;;;5036705;28;20457;-66
2023/08/02 12:12:59;;;;;;;7.63;3.67;;;23.50;98.00;;;;;;5036127;28;20452;-67
2023/08/02 12:15:27;;;;;;;5.57;3.70;;;23.70;98.00;;;;;;5054014;28;20477;-66
2023/08/02 12:18:04;;;;;;;5.07;3.57;;;23.80;98.00;;;;;;5054030;28;20728;-66
2023/08/02 12:20:32;;;;;;;7.13;3.80;;;23.70;98.00;;;;;;5054178;28;20445;-66
2023/08/02 12:23:00;;;;;;;6.03;3.70;;;23.60;98.00;;;;;;5036360;28;20450;-66
2023/08/02 12:25:27;;;;;;;5.87;3.43;;;23.70;98.00;;;;;;5053943;28;20519;-65
2023/08/02 12:28:08;;;;;;;6.00;3.40;;;23.70;98.00;;;;;;5053681;28;20450;-66
2023/08/02 12:30:35;;;;;;;5.90;3.37;;;23.60;98.00;;;;;;5052461;28;20453;-66
2023/08/02 12:33:02;;;;;;;7.90;3.57;;;23.60;98.00;;;;;;5053716;28;20458;-66
2023/08/02 12:35:29;;;;;;;5.73;3.53;;;23.50;98.00;;;;;;5035811;28;20485;-65
2023/08/02 12:37:57;;;;;;;7.70;3.97;;;23.40;98.00;;;;;;5053428;28;20820;-65
2023/08/02 12:40:23;;;;;;;7.97;3.20;;;23.40;98.00;;;;;;5053525;28;20462;-65
2023/08/02 12:42:50;;;;;;;6.07;3.73;;;23.30;98.00;;;;;;5053364;28;20454;-66
2023/08/02 12:45:25;;;;;;;5.53;3.17;;;23.20;98.00;;;;;;5053519;28;20458;-66
2023/08/02 12:47:52;;;;;;;6.00;3.70;;;23.10;98.00;;;;;;5053216;28;20445;-66
2023/08/02 12:50:19;;;;;;;6.10;3.83;;;23.10;98.00;;;;;;5053331;28;20997;-66
2023/08/02 12:52:46;;;;;;;7.40;4.47;;;23.20;98.00;;;;;;5053123;28;20457;-66
2023/08/02 12:55:14;;;;;;;6.03;3.53;;;23.60;98.00;;;;;;5035556;28;20474;-66